sensor_id;sensor_type;location;lat;lon;timestamp;pressure;altitude;pressure_sealevel;temperature;humidity
20930;BME280;21895;47.072;15.132;2024-01-30T00:01:57;98643.00;;;-3.84;70.82
20930;BME280;21895;47.072;15.132;2024-01-30T00:04:24;98644.00;;;-3.82;70.38
20930;BME280;21895;47.072;15.132;2024-01-30T00:06:51;98643.00;;;-3.91;70.24
20930;BME280;21895;47.072;15.132;2024-01-30T00:09:19;98648.00;;;-3.97;69.57
20930;BME280;21895;47.072;15.132;2024-01-30T00:11:45;98652.00;;;-3.97;69.01
20930;BME280;21895;47.072;15.132;2024-01-30T00:14:12;98645.00;;;-4.28;69.15
20930;BME280;21895;47.072;15.132;2024-01-30T00:16:39;98640.00;;;-4.39;69.57
20930;BME280;21895;47.072;15.132;2024-01-30T00:19:05;98640.00;;;-4.34;70.63
20930;BME280;21895;47.072;15.132;2024-01-30T00:21:32;98636.00;;;-4.25;71.25
20930;BME280;21895;47.072;15.132;2024-01-30T00:23:59;98634.00;;;-4.23;71.47
20930;BME280;21895;47.072;15.132;2024-01-30T00:26:25;98636.00;;;-4.14;71.18
20930;BME280;21895;47.072;15.132;2024-01-30T00:28:52;98634.00;;;-4.02;71.43
20930;BME280;21895;47.072;15.132;2024-01-30T00:31:18;98629.00;;;-4.14;70.77
20930;BME280;21895;47.072;15.132;2024-01-30T00:33:45;98638.00;;;-4.17;70.68
20930;BME280;21895;47.072;15.132;2024-01-30T00:36:12;98635.00;;;-4.16;70.97
20930;BME280;21895;47.072;15.132;2024-01-30T00:38:39;98640.00;;;-4.18;70.98
20930;BME280;21895;47.072;15.132;2024-01-30T00:41:08;98633.00;;;-4.16;70.49
20930;BME280;21895;47.072;15.132;2024-01-30T00:43:36;98640.00;;;-4.15;70.49
20930;BME280;21895;47.072;15.132;2024-01-30T00:46:02;98633.00;;;-4.16;70.52
20930;BME280;21895;47.072;15.132;2024-01-30T00:48:29;98631.00;;;-4.07;70.29
20930;BME280;21895;47.072;15.132;2024-01-30T00:50:56;98634.00;;;-4.07;69.63
20930;BME280;21895;47.072;15.132;2024-01-30T00:53:26;98636.00;;;-4.25;69.70
20930;BME280;21895;47.072;15.132;2024-01-30T00:55:52;98642.00;;;-4.29;69.37
20930;BME280;21895;47.072;15.132;2024-01-30T00:58:19;98636.00;;;-4.34;69.09
20930;BME280;21895;47.072;15.132;2024-01-30T01:00:46;98647.00;;;-4.48;69.09
20930;BME280;21895;47.072;15.132;2024-01-30T01:03:12;98648.00;;;-4.45;69.70
20930;BME280;21895;47.072;15.132;2024-01-30T01:05:40;98651.00;;;-4.38;69.80
20930;BME280;21895;47.072;15.132;2024-01-30T01:08:07;98639.00;;;-4.39;68.80
20930;BME280;21895;47.072;15.132;2024-01-30T01:10:33;98641.00;;;-4.43;69.29
20930;BME280;21895;47.072;15.132;2024-01-30T01:13:00;98643.00;;;-4.51;69.64
20930;BME280;21895;47.072;15.132;2024-01-30T01:15:27;98643.00;;;-4.51;70.05
20930;BME280;21895;47.072;15.132;2024-01-30T01:17:56;98639.00;;;-4.47;70.15
20930;BME280;21895;47.072;15.132;2024-01-30T01:20:23;98645.00;;;-4.60;69.82
20930;BME280;21895;47.072;15.132;2024-01-30T01:22:49;98641.00;;;-4.73;70.33
20930;BME280;21895;47.072;15.132;2024-01-30T01:25:16;98644.00;;;-4.66;69.41
20930;BME280;21895;47.072;15.132;2024-01-30T01:27:43;98640.00;;;-4.72;69.60
20930;BME280;21895;47.072;15.132;2024-01-30T01:30:11;98632.00;;;-4.72;70.14
20930;BME280;21895;47.072;15.132;2024-01-30T01:32:40;98635.00;;;-4.75;70.02
20930;BME280;21895;47.072;15.132;2024-01-30T01:35:15;98642.00;;;-4.75;71.28
20930;BME280;21895;47.072;15.132;2024-01-30T01:37:42;98640.00;;;-4.67;69.85
20930;BME280;21895;47.072;15.132;2024-01-30T01:40:09;98638.00;;;-4.81;69.87
20930;BME280;21895;47.072;15.132;2024-01-30T01:42:36;98637.00;;;-4.93;70.00
20930;BME280;21895;47.072;15.132;2024-01-30T01:45:03;98633.00;;;-4.88;70.12
20930;BME280;21895;47.072;15.132;2024-01-30T01:47:29;98626.00;;;-4.96;69.85
20930;BME280;21895;47.072;15.132;2024-01-30T01:49:56;98626.00;;;-4.95;69.99
20930;BME280;21895;47.072;15.132;2024-01-30T01:52:23;98628.00;;;-4.82;69.83
20930;BME280;21895;47.072;15.132;2024-01-30T01:54:50;98625.00;;;-4.73;69.73
20930;BME280;21895;47.072;15.132;2024-01-30T01:57:17;98623.00;;;-4.77;69.59
20930;BME280;21895;47.072;15.132;2024-01-30T01:59:44;98620.00;;;-4.97;69.74
20930;BME280;21895;47.072;15.132;2024-01-30T02:02:12;98618.00;;;-4.98;69.67
20930;BME280;21895;47.072;15.132;2024-01-30T02:04:42;98618.00;;;-4.65;71.03
20930;BME280;21895;47.072;15.132;2024-01-30T02:07:09;98605.00;;;-4.55;72.44
20930;BME280;21895;47.072;15.132;2024-01-30T02:09:36;98613.00;;;-4.33;72.62
20930;BME280;21895;47.072;15.132;2024-01-30T02:12:03;98610.00;;;-4.28;69.57
20930;BME280;21895;47.072;15.132;2024-01-30T02:14:30;98617.00;;;-4.30;68.74
20930;BME280;21895;47.072;15.132;2024-01-30T02:16:57;98613.00;;;-4.52;68.46
20930;BME280;21895;47.072;15.132;2024-01-30T02:19:24;98611.00;;;-4.89;68.56
20930;BME280;21895;47.072;15.132;2024-01-30T02:21:51;98617.00;;;-5.15;69.26
20930;BME280;21895;47.072;15.132;2024-01-30T02:24:18;98612.00;;;-5.08;71.09
20930;BME280;21895;47.072;15.132;2024-01-30T02:26:45;98610.00;;;-5.17;71.66
20930;BME280;21895;47.072;15.132;2024-01-30T02:29:11;98607.00;;;-5.17;72.32
20930;BME280;21895;47.072;15.132;2024-01-30T02:31:38;98607.00;;;-4.92;73.00
20930;BME280;21895;47.072;15.132;2024-01-30T02:34:05;98601.00;;;-4.75;72.39
20930;BME280;21895;47.072;15.132;2024-01-30T02:36:31;98595.00;;;-4.74;71.49
20930;BME280;21895;47.072;15.132;2024-01-30T02:38:58;98597.00;;;-4.55;71.10
20930;BME280;21895;47.072;15.132;2024-01-30T02:41:24;98599.00;;;-4.58;70.69
20930;BME280;21895;47.072;15.132;2024-01-30T02:43:51;98601.00;;;-4.63;70.82
20930;BME280;21895;47.072;15.132;2024-01-30T02:46:17;98607.00;;;-4.79;70.29
20930;BME280;21895;47.072;15.132;2024-01-30T02:48:44;98601.00;;;-4.83;70.49
20930;BME280;21895;47.072;15.132;2024-01-30T02:51:11;98590.00;;;-4.78;70.37
20930;BME280;21895;47.072;15.132;2024-01-30T02:53:38;98594.00;;;-4.87;69.81
20930;BME280;21895;47.072;15.132;2024-01-30T02:56:05;98595.00;;;-4.83;69.00
20930;BME280;21895;47.072;15.132;2024-01-30T02:58:32;98595.00;;;-5.02;69.13
20930;BME280;21895;47.072;15.132;2024-01-30T03:00:58;98585.00;;;-5.29;69.74
20930;BME280;21895;47.072;15.132;2024-01-30T03:03:25;98585.00;;;-5.18;70.20
20930;BME280;21895;47.072;15.132;2024-01-30T03:05:52;98591.00;;;-5.17;71.25
20930;BME280;21895;47.072;15.132;2024-01-30T03:08:18;98595.00;;;-5.05;71.30
20930;BME280;21895;47.072;15.132;2024-01-30T03:10:45;98583.00;;;-4.94;69.56
20930;BME280;21895;47.072;15.132;2024-01-30T03:13:12;98591.00;;;-5.12;68.71
20930;BME280;21895;47.072;15.132;2024-01-30T03:15:38;98586.00;;;-5.15;69.64
20930;BME280;21895;47.072;15.132;2024-01-30T03:18:05;98586.00;;;-5.29;71.45
20930;BME280;21895;47.072;15.132;2024-01-30T03:20:32;98586.00;;;-5.06;73.60
20930;BME280;21895;47.072;15.132;2024-01-30T03:23:00;98586.00;;;-4.88;73.46
20930;BME280;21895;47.072;15.132;2024-01-30T03:25:27;98583.00;;;-4.74;71.99
20930;BME280;21895;47.072;15.132;2024-01-30T03:27:53;98574.00;;;-4.83;70.62
20930;BME280;21895;47.072;15.132;2024-01-30T03:30:20;98577.00;;;-4.99;70.23
20930;BME280;21895;47.072;15.132;2024-01-30T03:32:47;98566.00;;;-4.98;70.45
20930;BME280;21895;47.072;15.132;2024-01-30T03:35:13;98574.00;;;-4.93;69.87
20930;BME280;21895;47.072;15.132;2024-01-30T03:37:40;98578.00;;;-5.19;69.51
20930;BME280;21895;47.072;15.132;2024-01-30T03:40:08;98566.00;;;-5.27;70.35
20930;BME280;21895;47.072;15.132;2024-01-30T03:42:34;98570.00;;;-5.24;71.92
20930;BME280;21895;47.072;15.132;2024-01-30T03:45:01;98576.00;;;-5.12;71.39
20930;BME280;21895;47.072;15.132;2024-01-30T03:47:28;98574.00;;;-5.10;69.67
20930;BME280;21895;47.072;15.132;2024-01-30T03:49:55;98576.00;;;-5.39;68.90
20930;BME280;21895;47.072;15.132;2024-01-30T03:52:22;98577.00;;;-5.35;69.78
20930;BME280;21895;47.072;15.132;2024-01-30T03:54:48;98570.00;;;-5.46;70.03
20930;BME280;21895;47.072;15.132;2024-01-30T03:57:15;98571.00;;;-5.53;69.79
20930;BME280;21895;47.072;15.132;2024-01-30T03:59:42;98574.00;;;-5.53;69.69
20930;BME280;21895;47.072;15.132;2024-01-30T04:02:11;98571.00;;;-5.37;69.73
20930;BME280;21895;47.072;15.132;2024-01-30T04:04:38;98584.00;;;-5.48;70.55
20930;BME280;21895;47.072;15.132;2024-01-30T04:07:05;98580.00;;;-5.41;70.71
20930;BME280;21895;47.072;15.132;2024-01-30T04:09:31;98586.00;;;-5.27;70.59
20930;BME280;21895;47.072;15.132;2024-01-30T04:11:58;98577.00;;;-5.18;70.38
20930;BME280;21895;47.072;15.132;2024-01-30T04:14:25;98580.00;;;-5.11;70.20
20930;BME280;21895;47.072;15.132;2024-01-30T04:16:52;98580.00;;;-5.10;69.39
20930;BME280;21895;47.072;15.132;2024-01-30T04:19:18;98586.00;;;-5.20;68.62
20930;BME280;21895;47.072;15.132;2024-01-30T04:21:45;98585.00;;;-5.41;68.18
20930;BME280;21895;47.072;15.132;2024-01-30T04:24:12;98585.00;;;-5.41;68.94
20930;BME280;21895;47.072;15.132;2024-01-30T04:26:38;98582.00;;;-5.58;70.39
20930;BME280;21895;47.072;15.132;2024-01-30T04:29:05;98582.00;;;-5.44;72.22
20930;BME280;21895;47.072;15.132;2024-01-30T04:31:31;98582.00;;;-5.26;72.75
20930;BME280;21895;47.072;15.132;2024-01-30T04:33:58;98590.00;;;-5.13;72.19
20930;BME280;21895;47.072;15.132;2024-01-30T04:36:24;98585.00;;;-5.11;72.52
20930;BME280;21895;47.072;15.132;2024-01-30T04:38:51;98584.00;;;-4.96;72.03
20930;BME280;21895;47.072;15.132;2024-01-30T04:41:18;98584.00;;;-4.82;70.94
20930;BME280;21895;47.072;15.132;2024-01-30T04:43:44;98591.00;;;-5.03;68.77
20930;BME280;21895;47.072;15.132;2024-01-30T04:46:11;98583.00;;;-5.24;68.99
20930;BME280;21895;47.072;15.132;2024-01-30T04:48:37;98585.00;;;-5.41;69.53
20930;BME280;21895;47.072;15.132;2024-01-30T04:51:04;98594.00;;;-5.44;69.98
20930;BME280;21895;47.072;15.132;2024-01-30T04:53:31;98593.00;;;-5.66;70.27
20930;BME280;21895;47.072;15.132;2024-01-30T04:55:58;98596.00;;;-5.69;70.50
20930;BME280;21895;47.072;15.132;2024-01-30T04:58:24;98584.00;;;-5.39;70.24
20930;BME280;21895;47.072;15.132;2024-01-30T05:00:51;98588.00;;;-5.41;69.27
20930;BME280;21895;47.072;15.132;2024-01-30T05:03:19;98584.00;;;-5.54;69.78
20930;BME280;21895;47.072;15.132;2024-01-30T05:05:46;98588.00;;;-5.46;69.91
20930;BME280;21895;47.072;15.132;2024-01-30T05:08:13;98592.00;;;-5.44;69.55
20930;BME280;21895;47.072;15.132;2024-01-30T05:10:40;98587.00;;;-5.37;69.61
20930;BME280;21895;47.072;15.132;2024-01-30T05:13:06;98591.00;;;-5.44;69.03
20930;BME280;21895;47.072;15.132;2024-01-30T05:15:33;98591.00;;;-5.59;69.92
20930;BME280;21895;47.072;15.132;2024-01-30T05:17:59;98598.00;;;-5.54;71.41
20930;BME280;21895;47.072;15.132;2024-01-30T05:20:27;98596.00;;;-5.36;69.60
20930;BME280;21895;47.072;15.132;2024-01-30T05:22:55;98596.00;;;-5.42;70.85
20930;BME280;21895;47.072;15.132;2024-01-30T05:25:21;98589.00;;;-5.29;71.41
20930;BME280;21895;47.072;15.132;2024-01-30T05:27:48;98586.00;;;-5.12;72.47
20930;BME280;21895;47.072;15.132;2024-01-30T05:30:15;98591.00;;;-5.09;71.61
20930;BME280;21895;47.072;15.132;2024-01-30T05:32:41;98597.00;;;-5.15;70.84
20930;BME280;21895;47.072;15.132;2024-01-30T05:35:08;98588.00;;;-5.32;70.96
20930;BME280;21895;47.072;15.132;2024-01-30T05:37:35;98596.00;;;-5.27;70.93
20930;BME280;21895;47.072;15.132;2024-01-30T05:40:01;98596.00;;;-5.18;69.73
20930;BME280;21895;47.072;15.132;2024-01-30T05:42:28;98603.00;;;-5.23;69.43
20930;BME280;21895;47.072;15.132;2024-01-30T05:44:54;98595.00;;;-5.40;68.69
20930;BME280;21895;47.072;15.132;2024-01-30T05:47:21;98594.00;;;-5.41;69.17
20930;BME280;21895;47.072;15.132;2024-01-30T05:49:48;98597.00;;;-5.50;68.66
20930;BME280;21895;47.072;15.132;2024-01-30T05:52:14;98602.00;;;-5.49;68.42
20930;BME280;21895;47.072;15.132;2024-01-30T05:54:41;98603.00;;;-5.68;69.14
20930;BME280;21895;47.072;15.132;2024-01-30T05:57:08;98607.00;;;-5.74;68.83
20930;BME280;21895;47.072;15.132;2024-01-30T05:59:35;98601.00;;;-5.76;71.30
20930;BME280;21895;47.072;15.132;2024-01-30T06:02:06;98602.00;;;-5.77;69.90
20930;BME280;21895;47.072;15.132;2024-01-30T06:04:33;98606.00;;;-5.70;70.15
20930;BME280;21895;47.072;15.132;2024-01-30T06:07:00;98606.00;;;-5.70;69.39
20930;BME280;21895;47.072;15.132;2024-01-30T06:09:28;98611.00;;;-5.70;70.86
20930;BME280;21895;47.072;15.132;2024-01-30T06:11:55;98604.00;;;-5.79;69.85
20930;BME280;21895;47.072;15.132;2024-01-30T06:14:22;98604.00;;;-5.73;69.77
20930;BME280;21895;47.072;15.132;2024-01-30T06:16:48;98607.00;;;-5.71;69.53
20930;BME280;21895;47.072;15.132;2024-01-30T06:19:15;98602.00;;;-5.58;69.64
20930;BME280;21895;47.072;15.132;2024-01-30T06:21:42;98612.00;;;-5.65;70.10
20930;BME280;21895;47.072;15.132;2024-01-30T06:24:08;98611.00;;;-5.49;70.27
20930;BME280;21895;47.072;15.132;2024-01-30T06:26:35;98607.00;;;-5.55;69.21
20930;BME280;21895;47.072;15.132;2024-01-30T06:29:02;98617.00;;;-5.55;69.32
20930;BME280;21895;47.072;15.132;2024-01-30T06:31:29;98603.00;;;-5.56;68.29
20930;BME280;21895;47.072;15.132;2024-01-30T06:33:55;98611.00;;;-5.57;68.50
20930;BME280;21895;47.072;15.132;2024-01-30T06:36:22;98604.00;;;-5.74;68.13
20930;BME280;21895;47.072;15.132;2024-01-30T06:38:49;98609.00;;;-5.87;69.98
20930;BME280;21895;47.072;15.132;2024-01-30T06:41:15;98606.00;;;-5.68;72.51
20930;BME280;21895;47.072;15.132;2024-01-30T06:43:42;98608.00;;;-5.61;70.30
20930;BME280;21895;47.072;15.132;2024-01-30T06:46:11;98607.00;;;-5.25;71.77
20930;BME280;21895;47.072;15.132;2024-01-30T06:48:37;98604.00;;;-5.15;70.99
20930;BME280;21895;47.072;15.132;2024-01-30T06:51:06;98605.00;;;-5.26;71.26
20930;BME280;21895;47.072;15.132;2024-01-30T06:53:33;98615.00;;;-5.22;71.19
20930;BME280;21895;47.072;15.132;2024-01-30T06:55:59;98618.00;;;-5.10;70.03
20930;BME280;21895;47.072;15.132;2024-01-30T06:58:26;98614.00;;;-5.21;70.56
20930;BME280;21895;47.072;15.132;2024-01-30T07:00:54;98627.00;;;-5.03;71.01
20930;BME280;21895;47.072;15.132;2024-01-30T07:03:21;98622.00;;;-4.89;71.05
20930;BME280;21895;47.072;15.132;2024-01-30T07:05:48;98619.00;;;-4.99;71.69
20930;BME280;21895;47.072;15.132;2024-01-30T07:08:16;98623.00;;;-4.88;72.84
20930;BME280;21895;47.072;15.132;2024-01-30T07:10:44;98619.00;;;-4.84;71.99
20930;BME280;21895;47.072;15.132;2024-01-30T07:13:11;98611.00;;;-4.66;71.84
20930;BME280;21895;47.072;15.132;2024-01-30T07:15:38;98609.00;;;-4.40;71.91
20930;BME280;21895;47.072;15.132;2024-01-30T07:18:05;98615.00;;;-4.30;71.97
20930;BME280;21895;47.072;15.132;2024-01-30T07:20:32;98618.00;;;-4.01;70.95
20930;BME280;21895;47.072;15.132;2024-01-30T07:22:59;98617.00;;;-3.92;70.13
20930;BME280;21895;47.072;15.132;2024-01-30T07:25:25;98617.00;;;-3.88;69.13
20930;BME280;21895;47.072;15.132;2024-01-30T07:27:53;98609.00;;;-3.83;68.80
20930;BME280;21895;47.072;15.132;2024-01-30T07:30:20;98613.00;;;-3.83;69.66
20930;BME280;21895;47.072;15.132;2024-01-30T07:32:47;98612.00;;;-3.54;69.90
20930;BME280;21895;47.072;15.132;2024-01-30T07:35:14;98612.00;;;-3.40;69.39
20930;BME280;21895;47.072;15.132;2024-01-30T07:37:41;98619.00;;;-3.23;68.91
20930;BME280;21895;47.072;15.132;2024-01-30T07:40:08;98619.00;;;-3.32;69.06
20930;BME280;21895;47.072;15.132;2024-01-30T07:42:35;98626.00;;;-3.26;69.61
20930;BME280;21895;47.072;15.132;2024-01-30T07:45:02;98624.00;;;-3.10;69.93
20930;BME280;21895;47.072;15.132;2024-01-30T07:47:29;98617.00;;;-3.07;70.58
20930;BME280;21895;47.072;15.132;2024-01-30T07:49:56;98615.00;;;-2.96;71.54
20930;BME280;21895;47.072;15.132;2024-01-30T07:52:22;98609.00;;;-2.68;71.26
20930;BME280;21895;47.072;15.132;2024-01-30T07:54:50;98614.00;;;-2.53;70.73
20930;BME280;21895;47.072;15.132;2024-01-30T07:57:18;98613.00;;;-2.41;71.11
20930;BME280;21895;47.072;15.132;2024-01-30T07:59:45;98608.00;;;-2.40;71.20
20930;BME280;21895;47.072;15.132;2024-01-30T08:02:14;98614.00;;;-2.30;70.96
20930;BME280;21895;47.072;15.132;2024-01-30T08:04:41;98607.00;;;-2.15;71.20
20930;BME280;21895;47.072;15.132;2024-01-30T08:07:08;98613.00;;;-2.02;71.47
20930;BME280;21895;47.072;15.132;2024-01-30T08:09:35;98605.00;;;-1.88;71.46
20930;BME280;21895;47.072;15.132;2024-01-30T08:12:02;98612.00;;;-1.64;71.50
20930;BME280;21895;47.072;15.132;2024-01-30T08:14:28;98611.00;;;-1.55;71.99
20930;BME280;21895;47.072;15.132;2024-01-30T08:16:55;98605.00;;;-1.41;71.95
20930;BME280;21895;47.072;15.132;2024-01-30T08:19:22;98610.00;;;-1.16;71.47
20930;BME280;21895;47.072;15.132;2024-01-30T08:21:48;98603.00;;;-1.11;71.37
20930;BME280;21895;47.072;15.132;2024-01-30T08:24:15;98599.00;;;-0.86;70.96
20930;BME280;21895;47.072;15.132;2024-01-30T08:26:42;98608.00;;;-0.77;70.63
20930;BME280;21895;47.072;15.132;2024-01-30T08:29:08;98605.00;;;-0.65;70.18
20930;BME280;21895;47.072;15.132;2024-01-30T08:31:35;98605.00;;;-0.52;69.71
20930;BME280;21895;47.072;15.132;2024-01-30T08:34:02;98595.00;;;-0.44;69.73
20930;BME280;21895;47.072;15.132;2024-01-30T08:36:29;98605.00;;;-0.15;69.08
20930;BME280;21895;47.072;15.132;2024-01-30T08:38:56;98601.00;;;-0.11;68.95
20930;BME280;21895;47.072;15.132;2024-01-30T08:41:28;98601.00;;;-0.02;68.69
20930;BME280;21895;47.072;15.132;2024-01-30T08:43:55;98594.00;;;0.13;68.64
20930;BME280;21895;47.072;15.132;2024-01-30T08:46:22;98598.00;;;0.29;68.27
20930;BME280;21895;47.072;15.132;2024-01-30T08:48:49;98593.00;;;0.54;67.69
20930;BME280;21895;47.072;15.132;2024-01-30T08:51:15;98588.00;;;0.67;67.48
20930;BME280;21895;47.072;15.132;2024-01-30T08:53:42;98588.00;;;0.95;67.09
20930;BME280;21895;47.072;15.132;2024-01-30T08:56:09;98585.00;;;1.12;66.28
20930;BME280;21895;47.072;15.132;2024-01-30T08:58:36;98583.00;;;1.28;65.62
20930;BME280;21895;47.072;15.132;2024-01-30T09:01:02;98592.00;;;1.47;65.59
20930;BME280;21895;47.072;15.132;2024-01-30T09:03:35;98581.00;;;1.47;65.52
20930;BME280;21895;47.072;15.132;2024-01-30T09:06:03;98578.00;;;1.62;64.65
20930;BME280;21895;47.072;15.132;2024-01-30T09:08:30;98575.00;;;1.85;64.25
20930;BME280;21895;47.072;15.132;2024-01-30T09:10:56;98578.00;;;2.00;64.51
20930;BME280;21895;47.072;15.132;2024-01-30T09:13:23;98570.00;;;2.20;64.10
20930;BME280;21895;47.072;15.132;2024-01-30T09:15:50;98579.00;;;2.31;63.45
20930;BME280;21895;47.072;15.132;2024-01-30T09:18:18;98574.00;;;2.48;63.33
20930;BME280;21895;47.072;15.132;2024-01-30T09:20:44;98581.00;;;2.67;62.32
20930;BME280;21895;47.072;15.132;2024-01-30T09:23:13;98579.00;;;2.74;61.82
20930;BME280;21895;47.072;15.132;2024-01-30T09:25:40;98566.00;;;2.85;60.90
20930;BME280;21895;47.072;15.132;2024-01-30T09:28:07;98563.00;;;2.91;60.05
20930;BME280;21895;47.072;15.132;2024-01-30T09:30:33;98561.00;;;3.18;59.50
20930;BME280;21895;47.072;15.132;2024-01-30T09:33:00;98567.00;;;3.28;59.25
20930;BME280;21895;47.072;15.132;2024-01-30T09:35:27;98570.00;;;3.49;59.06
20930;BME280;21895;47.072;15.132;2024-01-30T09:37:54;98567.00;;;3.62;58.88
20930;BME280;21895;47.072;15.132;2024-01-30T09:40:21;98557.00;;;3.82;59.29
20930;BME280;21895;47.072;15.132;2024-01-30T09:42:50;98563.00;;;3.93;58.89
20930;BME280;21895;47.072;15.132;2024-01-30T09:45:18;98557.00;;;4.07;58.09
20930;BME280;21895;47.072;15.132;2024-01-30T09:47:46;98564.00;;;4.22;57.44
20930;BME280;21895;47.072;15.132;2024-01-30T09:50:14;98557.00;;;4.35;56.95
20930;BME280;21895;47.072;15.132;2024-01-30T09:52:46;98557.00;;;4.49;57.13
20930;BME280;21895;47.072;15.132;2024-01-30T09:55:15;98563.00;;;4.65;56.67
20930;BME280;21895;47.072;15.132;2024-01-30T09:57:42;98562.00;;;4.77;56.33
20930;BME280;21895;47.072;15.132;2024-01-30T10:00:10;98559.00;;;4.82;56.24
20930;BME280;21895;47.072;15.132;2024-01-30T10:02:38;98553.00;;;4.98;55.92
20930;BME280;21895;47.072;15.132;2024-01-30T10:05:05;98556.00;;;5.09;55.83
20930;BME280;21895;47.072;15.132;2024-01-30T10:07:32;98544.00;;;5.15;55.53
20930;BME280;21895;47.072;15.132;2024-01-30T10:09:59;98554.00;;;5.13;55.75
20930;BME280;21895;47.072;15.132;2024-01-30T10:12:30;98550.00;;;5.29;54.85
20930;BME280;21895;47.072;15.132;2024-01-30T10:14:57;98550.00;;;5.41;54.27
20930;BME280;21895;47.072;15.132;2024-01-30T10:17:25;98547.00;;;5.46;53.40
20930;BME280;21895;47.072;15.132;2024-01-30T10:20:00;98550.00;;;5.45;53.49
20930;BME280;21895;47.072;15.132;2024-01-30T10:22:30;98544.00;;;5.55;53.33
20930;BME280;21895;47.072;15.132;2024-01-30T10:24:57;98541.00;;;5.42;53.21
20930;BME280;21895;47.072;15.132;2024-01-30T10:27:27;98540.00;;;5.41;52.90
20930;BME280;21895;47.072;15.132;2024-01-30T10:29:53;98537.00;;;5.45;52.76
20930;BME280;21895;47.072;15.132;2024-01-30T10:32:21;98534.00;;;5.56;52.09
20930;BME280;21895;47.072;15.132;2024-01-30T10:34:47;98524.00;;;5.74;51.48
20930;BME280;21895;47.072;15.132;2024-01-30T10:37:15;98522.00;;;5.76;51.41
20930;BME280;21895;47.072;15.132;2024-01-30T10:39:46;98523.00;;;5.77;51.43
20930;BME280;21895;47.072;15.132;2024-01-30T10:42:18;98516.00;;;5.76;51.69
20930;BME280;21895;47.072;15.132;2024-01-30T10:46:42;98509.00;;;5.76;52.56
20930;BME280;21895;47.072;15.132;2024-01-30T10:49:10;98506.00;;;5.99;52.71
20930;BME280;21895;47.072;15.132;2024-01-30T10:51:38;98506.00;;;5.99;52.23
20930;BME280;21895;47.072;15.132;2024-01-30T10:54:07;98501.00;;;6.01;52.06
20930;BME280;21895;47.072;15.132;2024-01-30T10:56:35;98495.00;;;6.13;51.78
20930;BME280;21895;47.072;15.132;2024-01-30T10:59:02;98500.00;;;6.23;52.06
20930;BME280;21895;47.072;15.132;2024-01-30T11:01:30;98489.00;;;6.29;51.49
20930;BME280;21895;47.072;15.132;2024-01-30T11:03:58;98486.00;;;6.32;51.13
20930;BME280;21895;47.072;15.132;2024-01-30T11:06:26;98484.00;;;6.39;51.17
20930;BME280;21895;47.072;15.132;2024-01-30T11:09:04;98481.00;;;6.40;51.26
20930;BME280;21895;47.072;15.132;2024-01-30T11:13:13;98469.00;;;6.36;50.96
20930;BME280;21895;47.072;15.132;2024-01-30T11:15:40;98470.00;;;6.55;50.54
20930;BME280;21895;47.072;15.132;2024-01-30T11:18:09;98470.00;;;6.71;49.59
20930;BME280;21895;47.072;15.132;2024-01-30T11:20:36;98460.00;;;6.74;48.86
20930;BME280;21895;47.072;15.132;2024-01-30T11:23:03;98457.00;;;6.83;49.23
20930;BME280;21895;47.072;15.132;2024-01-30T11:25:34;98459.00;;;6.90;48.86
20930;BME280;21895;47.072;15.132;2024-01-30T11:28:01;98454.00;;;6.95;48.32
20930;BME280;21895;47.072;15.132;2024-01-30T11:30:33;98447.00;;;6.99;48.81
20930;BME280;21895;47.072;15.132;2024-01-30T11:33:12;98449.00;;;7.17;48.25
20930;BME280;21895;47.072;15.132;2024-01-30T11:35:43;98437.00;;;7.01;48.56
20930;BME280;21895;47.072;15.132;2024-01-30T11:38:14;98430.00;;;7.23;47.87
20930;BME280;21895;47.072;15.132;2024-01-30T11:40:41;98435.00;;;7.13;48.17
20930;BME280;21895;47.072;15.132;2024-01-30T11:43:09;98432.00;;;7.16;48.12
20930;BME280;21895;47.072;15.132;2024-01-30T11:45:36;98436.00;;;7.25;48.29
20930;BME280;21895;47.072;15.132;2024-01-30T11:48:04;98425.00;;;7.19;47.56
20930;BME280;21895;47.072;15.132;2024-01-30T11:50:33;98433.00;;;7.15;47.67
20930;BME280;21895;47.072;15.132;2024-01-30T11:53:00;98426.00;;;7.21;47.71
20930;BME280;21895;47.072;15.132;2024-01-30T11:55:29;98427.00;;;7.47;46.80
20930;BME280;21895;47.072;15.132;2024-01-30T11:58:00;98429.00;;;7.39;47.18
20930;BME280;21895;47.072;15.132;2024-01-30T12:00:27;98414.00;;;7.47;46.48
20930;BME280;21895;47.072;15.132;2024-01-30T12:02:55;98418.00;;;7.40;47.62
20930;BME280;21895;47.072;15.132;2024-01-30T12:05:23;98423.00;;;7.27;48.24
20930;BME280;21895;47.072;15.132;2024-01-30T12:07:50;98421.00;;;7.25;47.76
20930;BME280;21895;47.072;15.132;2024-01-30T12:10:21;98415.00;;;7.22;47.65
20930;BME280;21895;47.072;15.132;2024-01-30T12:12:50;98413.00;;;7.37;48.05
20930;BME280;21895;47.072;15.132;2024-01-30T12:15:21;98412.00;;;7.36;47.76
20930;BME280;21895;47.072;15.132;2024-01-30T12:17:48;98410.00;;;7.27;47.97
20930;BME280;21895;47.072;15.132;2024-01-30T12:20:19;98414.00;;;7.31;48.05
20930;BME280;21895;47.072;15.132;2024-01-30T12:22:49;98402.00;;;7.28;47.44
20930;BME280;21895;47.072;15.132;2024-01-30T12:25:20;98399.00;;;7.25;48.01
20930;BME280;21895;47.072;15.132;2024-01-30T12:27:50;98400.00;;;7.36;47.76
20930;BME280;21895;47.072;15.132;2024-01-30T12:30:20;98398.00;;;7.36;47.82
20930;BME280;21895;47.072;15.132;2024-01-30T12:32:51;98398.00;;;7.41;48.19
20930;BME280;21895;47.072;15.132;2024-01-30T12:35:20;98391.00;;;7.58;47.76
20930;BME280;21895;47.072;15.132;2024-01-30T12:37:48;98395.00;;;7.56;47.61
20930;BME280;21895;47.072;15.132;2024-01-30T12:40:16;98395.00;;;7.86;46.20
20930;BME280;21895;47.072;15.132;2024-01-30T12:42:46;98387.00;;;7.75;46.88
20930;BME280;21895;47.072;15.132;2024-01-30T12:45:15;98384.00;;;7.72;47.11
20930;BME280;21895;47.072;15.132;2024-01-30T12:47:42;98380.00;;;7.82;46.71
20930;BME280;21895;47.072;15.132;2024-01-30T12:50:09;98379.00;;;7.80;46.83
20930;BME280;21895;47.072;15.132;2024-01-30T12:52:36;98381.00;;;7.76;46.68
20930;BME280;21895;47.072;15.132;2024-01-30T12:55:03;98378.00;;;7.76;46.71
20930;BME280;21895;47.072;15.132;2024-01-30T12:57:30;98371.00;;;7.75;46.83